Saturday, May 26, 2018, 6:17 AM EDT
Back to Local

KCAR, Caribou Municipal Airport

Location: Caribou, ME, United States Lat: 46.867
Local Time: 6:17 AM EDT (10:17 GMT) Lon: -68.017
Time Zone: US/Eastern Elev: 626 ft

Show me the last for .
Show Decoded

2018-05-26 05:54 METAR KCAR 260954Z AUTO 03006KT 10SM SCT090 BKN110 11/08 A2962 RMK AO2 SLP032
                 T01110083 =
2018-05-26 04:54 METAR KCAR 260854Z AUTO 02009KT 10SM OVC095 12/09 A2959 RMK AO2 SLP021 60000
                 T01220089 53012 =
2018-05-26 03:54 METAR KCAR 260754Z AUTO 01008KT 10SM FEW007 OVC085 15/12 A2955 RMK AO2
                 RAB0659E21B27E36 SLP010 P0000 T01500122 =
2018-05-26 03:40 METAR KCAR 260740Z AUTO 34005KT 3SM BR FEW002 BKN007 OVC085 15/14 A2955 RMK AO2
                 RAB0659E21B27E36 P0000 T01500139 =
2018-05-26 03:30 METAR KCAR 260730Z AUTO 31003KT 1 3/4SM -RA BR FEW002 BKN006 OVC080 15/14 A2955
                 RMK AO2 RAB0659E21B27 P0000 T01500139 =
2018-05-26 03:22 METAR KCAR 260722Z AUTO 00000KT 3SM BR BKN006 OVC085 15/14 A2955 RMK AO2
                 RAB0659E21 P0000 T01500144 =
2018-05-26 02:54 METAR KCAR 260654Z AUTO 01005KT 4SM BR FEW009 OVC080 15/14 A2955 RMK AO2 SLP009
                 T01500139 =
2018-05-26 02:19 METAR KCAR 260619Z AUTO 36005KT 3SM BR BKN080 BKN100 OVC110 15/14 A2955 RMK AO2
                 T01500139 =
2018-05-26 02:17 METAR KCAR 260617Z AUTO 36005KT 1 3/4SM BR BKN080 BKN100 OVC110 15/14 A2955 RMK
                 AO2 T01500139 =
2018-05-26 02:13 METAR KCAR 260613Z AUTO 35004KT 3/4SM BR BKN085 OVC110 16/14 A2955 RMK AO2
                 T01560144 =
2018-05-26 02:04 METAR KCAR 260604Z AUTO 00000KT 1 1/4SM BR BKN090 OVC120 15/14 A2954 RMK AO2
                 T01500139 =
2018-05-26 01:54 METAR KCAR 260554Z AUTO 19003KT 2 1/2SM BR BKN090 OVC110 15/14 A2954 RMK AO2
                 SLP005 60008 T01500144 10194 20150 58005 =
2018-05-26 01:44 METAR KCAR 260544Z AUTO 00000KT 2SM BR BKN085 OVC100 16/14 A2955 RMK AO2
                 T01560144 =
2018-05-26 00:54 METAR KCAR 260454Z AUTO 00000KT 4SM BR OVC085 16/14 A2955 RMK AO2 SLP010
                 T01560144 402170089 =
2018-05-25 23:54 METAR KCAR 260354Z AUTO 00000KT 6SM BR BKN080 BKN095 OVC120 16/14 A2955 RMK AO2
                 SLP011 T01560144 =
2018-05-25 22:54 METAR KCAR 260254Z AUTO 00000KT 9SM SCT080 BKN095 BKN120 16/15 A2955 RMK AO2
                 SLP011 60008 T01610150 50002 =
2018-05-25 21:54 METAR KCAR 260154Z AUTO 19003KT 10SM BKN065 17/15 A2956 RMK AO2 RAE42 SLP012
                 P0007 T01720150 =
2018-05-25 20:54 METAR KCAR 260054Z AUTO 25006KT 8SM -RA OVC060 18/14 A2956 RMK AO2 RAB49 SLP014
                 P0001 T01830139 =
2018-05-25 19:54 METAR KCAR 252354Z AUTO 23003KT 10SM SCT065 BKN090 BKN100 19/14 A2955 RMK AO2
                 RAE04 SLP009 P0000 60000 T01940139 10217 20167 53016 =
2018-05-25 18:54 METAR KCAR 252254Z AUTO 00000KT 10SM -RA FEW041 SCT070 BKN090 21/14 A2954 RMK
                 AO2 LTG DSNT SW-N RAB18 SLP005 P0000 T02110144 =
2018-05-25 17:54 METAR KCAR 252154Z AUTO 19004KT 10SM FEW095 22/13 A2951 RMK AO2 LTG DSNT SW
                 SLP996 T02170133 =
2018-05-25 16:54 METAR KCAR 252054Z AUTO 16005KT 10SM CLR 21/14 A2950 RMK AO2 LTG DSNT S-W SLP993
                 T02110139 56017 =
2018-05-25 15:54 METAR KCAR 251954Z AUTO 00000KT 10SM BKN100 20/13 A2952 RMK AO2 LTG DSNT SW
                 SLP998 T02000133 =
2018-05-25 14:54 METAR KCAR 251854Z AUTO 00000KT 10SM SCT100 18/13 A2953 RMK AO2 SLP004 T01830128
                 =
2018-05-25 13:54 METAR KCAR 251754Z AUTO 00000KT 10SM FEW110 17/13 A2955 RMK AO2 RAE10 SLP011
                 P0000 60017 T01670128 10172 20094 58010 =
2018-05-25 12:54 METAR KCAR 251654Z AUTO 00000KT 10SM -RA SCT041 BKN080 OVC100 15/12 A2957 RMK
                 AO2 RAE1556B22 SLP017 P0001 T01500117 =
2018-05-25 11:54 METAR KCAR 251554Z AUTO 00000KT 10SM -RA FEW034 SCT095 BKN110 14/12 A2958 RMK
                 AO2 RAE04B30 SLP022 P0000 T01390117 =
2018-05-25 11:21 METAR KCAR 251521Z AUTO 17003KT 10SM FEW070 BKN100 13/11 A2958 RMK AO2 RAE04
                 P0000 T01330106 =
2018-05-25 11:06 METAR KCAR 251506Z AUTO 00000KT 10SM VCTS FEW029 BKN100 BKN120 13/11 A2960 RMK
                 AO2 LTG DSNT SW RAE04 P0000 T01280106 =
2018-05-25 10:54 METAR KCAR 251454Z AUTO 17003KT 10SM -RA FEW022 SCT037 BKN090 12/10 A2958 RMK
                 AO2 LTG DSNT W SLP022 P0003 60016 T01170100 56023 =
2018-05-25 09:54 METAR KCAR 251354Z AUTO 21003KT 9SM -RA SCT004 BKN080 OVC095 10/09 A2961 RMK AO2
                 SLP031 P0009 T01000089 =
2018-05-25 09:51 METAR KCAR 251351Z AUTO 19005KT 7SM -RA SCT004 BKN055 OVC095 10/09 A2961 RMK AO2
                 P0009 =
2018-05-25 08:54 METAR KCAR 251254Z AUTO 20005KT 8SM -RA BKN047 OVC060 09/08 A2965 RMK AO2 LTG
                 DSNT NW SLP044 P0004 T00940083 =
2018-05-25 08:03 METAR KCAR 251203Z AUTO 20007KT 7SM -RA SCT004 BKN048 OVC095 09/08 A2964 RMK AO2
                 P0001 T00940078 =
2018-05-25 07:54 METAR KCAR 251154Z AUTO 24003KT 10SM -RA BKN004 BKN048 OVC090 09/08 A2967 RMK
                 AO2 PRESRR SLP052 P0003 60011 70014 T00940078 10094 20089 56010 =
2018-05-25 07:37 METAR KCAR 251137Z AUTO 18007KT 10SM -RA BKN004 BKN048 OVC090 09/08 A2965 RMK
                 AO2 P0003 T00940078 =
2018-05-25 06:54 METAR KCAR 251054Z AUTO 18005KT 7SM -RA BKN005 BKN070 OVC095 09/08 A2967 RMK AO2
                 RAB11E32B52 SLP053 P0000 T00940078 =
2018-05-25 06:44 METAR KCAR 251044Z AUTO 18006KT 10SM BKN005 OVC075 09/08 A2967 RMK AO2 RAB11E32
                 P0000 T00940078 =

Support USWX by starting your Amazon purchase here.